Sharps Chapel, Tennessee
Current Conditions -  °F | °C
As of 10:15 PM on Friday 31 Oct 2014 (Local Time) from K1A6 Reporting Station
Light Rain Light Rain  
Wind Chill: 30°   Ceiling: 1900
Heat Index: 37°   Visibility: 10mi
Dew Point: 33°   Wind: 10mph
Humidity: 87%   Direction: 330°NNW
Pressure: 29.97"   Gusts: 17mph
Location:  36.34°N, 83.8°W
Report Text: K1A6 010215Z AUTO 33009G15KT 10SM -RA OVC019 03/01 A2997 RMK AO2 T00270007
Loading
Personal Weather Stations






























Interactive Weather Map
Tropical Storm Tracking
New forecast layout! Learn more

10-Day Weather Forecast

Advertisements
Track Severe Weather on mobile